sensor_id;sensor_type;location;lat;lon;timestamp;pressure;altitude;pressure_sealevel;temperature;humidity
81033;BME280;70514;52.478;6.102;2024-01-15T00:01:53;100285.06;;;2.09;100.00
81033;BME280;70514;52.478;6.102;2024-01-15T00:04:20;100282.97;;;1.96;100.00
81033;BME280;70514;52.478;6.102;2024-01-15T00:06:49;100280.78;;;2.06;100.00
81033;BME280;70514;52.478;6.102;2024-01-15T00:09:17;100277.03;;;2.47;100.00
81033;BME280;70514;52.478;6.102;2024-01-15T00:11:45;100280.75;;;2.32;100.00
81033;BME280;70514;52.478;6.102;2024-01-15T00:14:13;100277.25;;;2.55;100.00
81033;BME280;70514;52.478;6.102;2024-01-15T00:16:42;100270.66;;;2.08;100.00
81033;BME280;70514;52.478;6.102;2024-01-15T00:19:09;100268.44;;;1.68;100.00
81033;BME280;70514;52.478;6.102;2024-01-15T00:21:37;100262.66;;;1.96;100.00
81033;BME280;70514;52.478;6.102;2024-01-15T00:24:05;100257.81;;;1.78;100.00
81033;BME280;70514;52.478;6.102;2024-01-15T00:26:33;100256.19;;;1.80;100.00
81033;BME280;70514;52.478;6.102;2024-01-15T00:29:01;100254.00;;;1.65;100.00
81033;BME280;70514;52.478;6.102;2024-01-15T00:31:29;100247.34;;;1.69;100.00
81033;BME280;70514;52.478;6.102;2024-01-15T00:34:00;100242.78;;;1.84;100.00
81033;BME280;70514;52.478;6.102;2024-01-15T00:36:28;100244.63;;;2.40;100.00
81033;BME280;70514;52.478;6.102;2024-01-15T00:38:56;100233.38;;;2.34;100.00
81033;BME280;70514;52.478;6.102;2024-01-15T00:41:24;100234.56;;;2.17;100.00
81033;BME280;70514;52.478;6.102;2024-01-15T00:43:52;100239.97;;;1.77;100.00
81033;BME280;70514;52.478;6.102;2024-01-15T00:46:19;100224.94;;;1.57;100.00
81033;BME280;70514;52.478;6.102;2024-01-15T00:48:47;100227.94;;;2.22;100.00
81033;BME280;70514;52.478;6.102;2024-01-15T00:51:15;100220.38;;;1.98;100.00
81033;BME280;70514;52.478;6.102;2024-01-15T00:53:44;100224.50;;;1.94;100.00
81033;BME280;70514;52.478;6.102;2024-01-15T00:56:11;100210.31;;;2.26;100.00
81033;BME280;70514;52.478;6.102;2024-01-15T00:58:39;100218.78;;;1.75;100.00
81033;BME280;70514;52.478;6.102;2024-01-15T01:01:07;100214.94;;;2.12;100.00
81033;BME280;70514;52.478;6.102;2024-01-15T01:03:35;100214.91;;;2.66;100.00
81033;BME280;70514;52.478;6.102;2024-01-15T01:06:03;100212.25;;;2.62;100.00
81033;BME280;70514;52.478;6.102;2024-01-15T01:08:31;100203.16;;;2.70;100.00
81033;BME280;70514;52.478;6.102;2024-01-15T01:10:59;100212.81;;;2.81;100.00
81033;BME280;70514;52.478;6.102;2024-01-15T01:13:27;100208.75;;;2.58;100.00
81033;BME280;70514;52.478;6.102;2024-01-15T01:15:55;100200.13;;;2.53;100.00
81033;BME280;70514;52.478;6.102;2024-01-15T01:18:22;100202.09;;;2.08;100.00
81033;BME280;70514;52.478;6.102;2024-01-15T01:20:51;100199.94;;;1.93;100.00
81033;BME280;70514;52.478;6.102;2024-01-15T01:23:18;100198.13;;;2.16;100.00
81033;BME280;70514;52.478;6.102;2024-01-15T01:25:46;100192.25;;;1.92;100.00
81033;BME280;70514;52.478;6.102;2024-01-15T01:28:14;100182.31;;;2.25;100.00
81033;BME280;70514;52.478;6.102;2024-01-15T01:30:42;100189.03;;;2.23;100.00
81033;BME280;70514;52.478;6.102;2024-01-15T01:33:10;100193.13;;;2.46;100.00
81033;BME280;70514;52.478;6.102;2024-01-15T01:35:38;100191.72;;;3.14;100.00
81033;BME280;70514;52.478;6.102;2024-01-15T01:38:06;100194.66;;;2.97;100.00
81033;BME280;70514;52.478;6.102;2024-01-15T01:40:33;100192.31;;;2.47;100.00
81033;BME280;70514;52.478;6.102;2024-01-15T01:43:03;100192.44;;;2.80;100.00
81033;BME280;70514;52.478;6.102;2024-01-15T01:45:31;100184.06;;;2.82;100.00
81033;BME280;70514;52.478;6.102;2024-01-15T01:48:00;100192.59;;;2.28;100.00
81033;BME280;70514;52.478;6.102;2024-01-15T01:50:30;100189.06;;;2.79;100.00
81033;BME280;70514;52.478;6.102;2024-01-15T01:53:00;100179.88;;;2.84;100.00
81033;BME280;70514;52.478;6.102;2024-01-15T01:55:29;100178.50;;;2.39;100.00
81033;BME280;70514;52.478;6.102;2024-01-15T01:57:59;100182.88;;;2.71;100.00
81033;BME280;70514;52.478;6.102;2024-01-15T02:00:26;100181.31;;;2.20;100.00
81033;BME280;70514;52.478;6.102;2024-01-15T02:02:54;100174.50;;;2.19;100.00
81033;BME280;70514;52.478;6.102;2024-01-15T02:05:22;100176.41;;;2.52;100.00
81033;BME280;70514;52.478;6.102;2024-01-15T02:07:50;100180.53;;;1.95;100.00
81033;BME280;70514;52.478;6.102;2024-01-15T02:10:18;100184.56;;;2.42;100.00
81033;BME280;70514;52.478;6.102;2024-01-15T02:12:46;100187.63;;;2.61;100.00
81033;BME280;70514;52.478;6.102;2024-01-15T02:15:16;100183.00;;;2.76;100.00
81033;BME280;70514;52.478;6.102;2024-01-15T02:18:07;100196.06;;;2.60;100.00
81033;BME280;70514;52.478;6.102;2024-01-15T02:20:36;100185.84;;;2.56;100.00
81033;BME280;70514;52.478;6.102;2024-01-15T02:23:11;100187.78;;;2.37;100.00
81033;BME280;70514;52.478;6.102;2024-01-15T02:25:44;100189.97;;;2.53;100.00
81033;BME280;70514;52.478;6.102;2024-01-15T02:28:15;100188.81;;;2.72;100.00
81033;BME280;70514;52.478;6.102;2024-01-15T02:30:43;100182.50;;;2.87;100.00
81033;BME280;70514;52.478;6.102;2024-01-15T02:33:11;100198.53;;;2.56;100.00
81033;BME280;70514;52.478;6.102;2024-01-15T02:35:40;100195.19;;;2.31;100.00
81033;BME280;70514;52.478;6.102;2024-01-15T02:38:08;100188.97;;;2.48;100.00
81033;BME280;70514;52.478;6.102;2024-01-15T02:40:36;100189.66;;;2.42;100.00
81033;BME280;70514;52.478;6.102;2024-01-15T02:43:04;100185.09;;;2.32;100.00
81033;BME280;70514;52.478;6.102;2024-01-15T02:45:32;100181.03;;;2.37;100.00
81033;BME280;70514;52.478;6.102;2024-01-15T02:48:00;100176.81;;;2.38;100.00
81033;BME280;70514;52.478;6.102;2024-01-15T02:50:28;100175.19;;;2.68;100.00
81033;BME280;70514;52.478;6.102;2024-01-15T02:52:55;100168.09;;;3.18;100.00
81033;BME280;70514;52.478;6.102;2024-01-15T02:55:23;100174.69;;;2.81;100.00
81033;BME280;70514;52.478;6.102;2024-01-15T02:57:51;100177.84;;;2.73;100.00
81033;BME280;70514;52.478;6.102;2024-01-15T03:00:19;100180.13;;;3.23;100.00
81033;BME280;70514;52.478;6.102;2024-01-15T03:02:47;100191.59;;;3.09;100.00
81033;BME280;70514;52.478;6.102;2024-01-15T03:05:15;100185.13;;;2.90;100.00
81033;BME280;70514;52.478;6.102;2024-01-15T03:07:43;100190.09;;;2.58;100.00
81033;BME280;70514;52.478;6.102;2024-01-15T03:10:11;100192.69;;;2.59;100.00
81033;BME280;70514;52.478;6.102;2024-01-15T03:12:39;100193.84;;;2.70;100.00
81033;BME280;70514;52.478;6.102;2024-01-15T03:15:07;100187.75;;;2.64;100.00
81033;BME280;70514;52.478;6.102;2024-01-15T03:17:35;100197.38;;;3.04;100.00
81033;BME280;70514;52.478;6.102;2024-01-15T03:20:03;100186.84;;;2.91;100.00
81033;BME280;70514;52.478;6.102;2024-01-15T03:22:31;100188.28;;;2.82;100.00
81033;BME280;70514;52.478;6.102;2024-01-15T03:24:59;100187.00;;;2.39;100.00
81033;BME280;70514;52.478;6.102;2024-01-15T03:27:26;100190.31;;;2.65;100.00
81033;BME280;70514;52.478;6.102;2024-01-15T03:29:54;100188.50;;;2.06;100.00
81033;BME280;70514;52.478;6.102;2024-01-15T03:32:22;100185.56;;;2.47;100.00
81033;BME280;70514;52.478;6.102;2024-01-15T03:34:50;100190.81;;;2.82;100.00
81033;BME280;70514;52.478;6.102;2024-01-15T03:37:20;100191.44;;;3.34;100.00
81033;BME280;70514;52.478;6.102;2024-01-15T03:39:47;100185.84;;;3.48;100.00
81033;BME280;70514;52.478;6.102;2024-01-15T03:42:15;100180.75;;;3.48;100.00
81033;BME280;70514;52.478;6.102;2024-01-15T03:44:43;100173.19;;;3.18;100.00
81033;BME280;70514;52.478;6.102;2024-01-15T03:47:11;100169.81;;;2.59;100.00
81033;BME280;70514;52.478;6.102;2024-01-15T03:49:39;100171.44;;;3.15;100.00
81033;BME280;70514;52.478;6.102;2024-01-15T03:52:06;100182.44;;;2.84;100.00
81033;BME280;70514;52.478;6.102;2024-01-15T03:54:34;100179.44;;;2.69;100.00
81033;BME280;70514;52.478;6.102;2024-01-15T03:57:02;100187.97;;;2.43;100.00
81033;BME280;70514;52.478;6.102;2024-01-15T03:59:30;100177.59;;;2.93;100.00
81033;BME280;70514;52.478;6.102;2024-01-15T04:01:57;100183.41;;;2.89;100.00
81033;BME280;70514;52.478;6.102;2024-01-15T04:04:25;100183.53;;;2.64;100.00
81033;BME280;70514;52.478;6.102;2024-01-15T04:06:53;100189.91;;;3.72;100.00
81033;BME280;70514;52.478;6.102;2024-01-15T04:09:21;100180.53;;;3.71;100.00
81033;BME280;70514;52.478;6.102;2024-01-15T04:11:49;100193.34;;;4.45;100.00
81033;BME280;70514;52.478;6.102;2024-01-15T04:14:17;100180.63;;;4.85;99.25
81033;BME280;70514;52.478;6.102;2024-01-15T04:16:45;100173.16;;;5.38;96.03
81033;BME280;70514;52.478;6.102;2024-01-15T04:19:12;100152.00;;;5.00;97.07
81033;BME280;70514;52.478;6.102;2024-01-15T04:21:40;100165.81;;;4.30;97.71
81033;BME280;70514;52.478;6.102;2024-01-15T04:24:09;100157.59;;;4.81;97.06
81033;BME280;70514;52.478;6.102;2024-01-15T04:26:36;100163.81;;;4.95;94.76
81033;BME280;70514;52.478;6.102;2024-01-15T04:29:04;100174.63;;;4.44;97.66
81033;BME280;70514;52.478;6.102;2024-01-15T04:31:32;100180.72;;;4.51;96.27
81033;BME280;70514;52.478;6.102;2024-01-15T04:34:00;100177.69;;;3.59;100.00
81033;BME280;70514;52.478;6.102;2024-01-15T04:36:27;100164.88;;;3.56;100.00
81033;BME280;70514;52.478;6.102;2024-01-15T04:38:55;100170.09;;;2.68;100.00
81033;BME280;70514;52.478;6.102;2024-01-15T04:41:23;100175.34;;;2.18;100.00
81033;BME280;70514;52.478;6.102;2024-01-15T04:43:51;100162.13;;;2.29;100.00
81033;BME280;70514;52.478;6.102;2024-01-15T04:46:18;100148.00;;;2.10;100.00
81033;BME280;70514;52.478;6.102;2024-01-15T04:48:46;100156.63;;;2.16;100.00
81033;BME280;70514;52.478;6.102;2024-01-15T04:51:14;100154.28;;;2.22;100.00
81033;BME280;70514;52.478;6.102;2024-01-15T04:53:42;100151.97;;;2.29;100.00
81033;BME280;70514;52.478;6.102;2024-01-15T04:56:10;100161.25;;;2.27;100.00
81033;BME280;70514;52.478;6.102;2024-01-15T04:58:38;100154.22;;;2.47;100.00
81033;BME280;70514;52.478;6.102;2024-01-15T05:01:08;100155.22;;;2.25;100.00
81033;BME280;70514;52.478;6.102;2024-01-15T05:03:36;100144.03;;;3.05;100.00
81033;BME280;70514;52.478;6.102;2024-01-15T05:06:04;100143.88;;;3.00;100.00
81033;BME280;70514;52.478;6.102;2024-01-15T05:08:32;100148.94;;;3.00;100.00
81033;BME280;70514;52.478;6.102;2024-01-15T05:11:00;100151.03;;;3.79;100.00
81033;BME280;70514;52.478;6.102;2024-01-15T05:13:27;100141.28;;;3.63;100.00
81033;BME280;70514;52.478;6.102;2024-01-15T05:15:55;100136.72;;;3.84;100.00
81033;BME280;70514;52.478;6.102;2024-01-15T05:18:23;100134.56;;;3.32;100.00
81033;BME280;70514;52.478;6.102;2024-01-15T05:20:51;100138.13;;;2.20;100.00
81033;BME280;70514;52.478;6.102;2024-01-15T05:23:20;100134.41;;;2.08;100.00
81033;BME280;70514;52.478;6.102;2024-01-15T05:25:47;100126.69;;;2.05;100.00
81033;BME280;70514;52.478;6.102;2024-01-15T05:28:15;100131.78;;;2.34;100.00
81033;BME280;70514;52.478;6.102;2024-01-15T05:30:43;100124.53;;;2.74;100.00
81033;BME280;70514;52.478;6.102;2024-01-15T05:33:11;100117.66;;;3.34;100.00
81033;BME280;70514;52.478;6.102;2024-01-15T05:35:39;100132.94;;;3.67;100.00
81033;BME280;70514;52.478;6.102;2024-01-15T05:38:06;100146.81;;;3.14;100.00
81033;BME280;70514;52.478;6.102;2024-01-15T05:40:34;100138.22;;;2.51;100.00
81033;BME280;70514;52.478;6.102;2024-01-15T05:43:02;100139.38;;;2.32;100.00
81033;BME280;70514;52.478;6.102;2024-01-15T05:45:30;100145.94;;;2.26;100.00
81033;BME280;70514;52.478;6.102;2024-01-15T05:47:58;100124.91;;;2.60;100.00
81033;BME280;70514;52.478;6.102;2024-01-15T05:50:26;100119.13;;;2.93;100.00
81033;BME280;70514;52.478;6.102;2024-01-15T05:52:53;100133.00;;;2.46;100.00
81033;BME280;70514;52.478;6.102;2024-01-15T05:55:21;100131.38;;;2.20;100.00
81033;BME280;70514;52.478;6.102;2024-01-15T05:57:49;100125.44;;;1.93;100.00
81033;BME280;70514;52.478;6.102;2024-01-15T06:00:17;100127.22;;;1.95;100.00
81033;BME280;70514;52.478;6.102;2024-01-15T06:02:45;100126.09;;;1.86;100.00
81033;BME280;70514;52.478;6.102;2024-01-15T06:05:12;100121.75;;;1.83;100.00
81033;BME280;70514;52.478;6.102;2024-01-15T06:07:41;100124.41;;;1.36;100.00
81033;BME280;70514;52.478;6.102;2024-01-15T06:10:09;100118.41;;;0.84;100.00
81033;BME280;70514;52.478;6.102;2024-01-15T06:12:36;100120.56;;;0.74;100.00
81033;BME280;70514;52.478;6.102;2024-01-15T06:15:04;100112.72;;;1.91;100.00
81033;BME280;70514;52.478;6.102;2024-01-15T06:17:32;100102.56;;;2.78;100.00
81033;BME280;70514;52.478;6.102;2024-01-15T06:20:00;100106.63;;;2.71;100.00
81033;BME280;70514;52.478;6.102;2024-01-15T06:22:28;100111.56;;;2.96;100.00
81033;BME280;70514;52.478;6.102;2024-01-15T06:24:56;100122.28;;;2.00;100.00
81033;BME280;70514;52.478;6.102;2024-01-15T06:27:23;100113.25;;;1.81;100.00
81033;BME280;70514;52.478;6.102;2024-01-15T06:29:51;100113.44;;;1.62;100.00
81033;BME280;70514;52.478;6.102;2024-01-15T06:32:19;100115.78;;;1.05;100.00
81033;BME280;70514;52.478;6.102;2024-01-15T06:34:47;100107.13;;;2.01;100.00
81033;BME280;70514;52.478;6.102;2024-01-15T06:37:14;100107.97;;;2.59;100.00
81033;BME280;70514;52.478;6.102;2024-01-15T06:39:42;100105.25;;;2.82;100.00
81033;BME280;70514;52.478;6.102;2024-01-15T06:42:10;100111.22;;;3.47;100.00
81033;BME280;70514;52.478;6.102;2024-01-15T06:44:38;100110.81;;;2.69;100.00
81033;BME280;70514;52.478;6.102;2024-01-15T06:47:05;100105.25;;;2.82;100.00
81033;BME280;70514;52.478;6.102;2024-01-15T06:49:33;100097.44;;;2.76;100.00
81033;BME280;70514;52.478;6.102;2024-01-15T06:52:01;100100.78;;;3.38;100.00
81033;BME280;70514;52.478;6.102;2024-01-15T06:54:29;100097.72;;;3.18;100.00
81033;BME280;70514;52.478;6.102;2024-01-15T06:56:57;100097.94;;;2.35;100.00
81033;BME280;70514;52.478;6.102;2024-01-15T06:59:25;100096.66;;;2.49;100.00
81033;BME280;70514;52.478;6.102;2024-01-15T07:01:53;100087.66;;;2.90;100.00
81033;BME280;70514;52.478;6.102;2024-01-15T07:04:20;100090.03;;;2.84;100.00
81033;BME280;70514;52.478;6.102;2024-01-15T07:06:48;100082.00;;;2.70;100.00
81033;BME280;70514;52.478;6.102;2024-01-15T07:09:16;100074.03;;;2.56;100.00
81033;BME280;70514;52.478;6.102;2024-01-15T07:11:45;100075.22;;;3.33;100.00
81033;BME280;70514;52.478;6.102;2024-01-15T07:14:14;100081.97;;;3.31;100.00
81033;BME280;70514;52.478;6.102;2024-01-15T07:16:42;100081.38;;;3.09;100.00
81033;BME280;70514;52.478;6.102;2024-01-15T07:19:14;100083.09;;;2.78;100.00
81033;BME280;70514;52.478;6.102;2024-01-15T07:21:43;100090.59;;;1.60;100.00
81033;BME280;70514;52.478;6.102;2024-01-15T07:24:11;100090.63;;;1.62;100.00
81033;BME280;70514;52.478;6.102;2024-01-15T07:26:38;100094.94;;;1.64;100.00
81033;BME280;70514;52.478;6.102;2024-01-15T07:29:07;100099.91;;;1.88;100.00
81033;BME280;70514;52.478;6.102;2024-01-15T07:31:35;100101.56;;;3.03;100.00
81033;BME280;70514;52.478;6.102;2024-01-15T07:34:04;100103.94;;;1.55;100.00
81033;BME280;70514;52.478;6.102;2024-01-15T07:36:32;100110.31;;;1.18;100.00
81033;BME280;70514;52.478;6.102;2024-01-15T07:38:59;100112.84;;;0.93;100.00
81033;BME280;70514;52.478;6.102;2024-01-15T07:41:27;100120.19;;;1.11;100.00
81033;BME280;70514;52.478;6.102;2024-01-15T07:43:55;100110.47;;;0.99;100.00
81033;BME280;70514;52.478;6.102;2024-01-15T07:46:25;100120.72;;;0.78;100.00
81033;BME280;70514;52.478;6.102;2024-01-15T07:48:53;100109.69;;;0.76;100.00
81033;BME280;70514;52.478;6.102;2024-01-15T07:51:24;100107.78;;;1.44;100.00
81033;BME280;70514;52.478;6.102;2024-01-15T07:53:55;100125.44;;;1.41;100.00
81033;BME280;70514;52.478;6.102;2024-01-15T07:56:23;100121.28;;;1.68;100.00
81033;BME280;70514;52.478;6.102;2024-01-15T07:58:51;100119.88;;;1.78;100.00
81033;BME280;70514;52.478;6.102;2024-01-15T08:01:19;100118.06;;;2.29;100.00
81033;BME280;70514;52.478;6.102;2024-01-15T08:03:47;100099.25;;;3.12;100.00
81033;BME280;70514;52.478;6.102;2024-01-15T08:06:15;100108.44;;;3.07;100.00
81033;BME280;70514;52.478;6.102;2024-01-15T08:08:44;100119.34;;;3.03;100.00
81033;BME280;70514;52.478;6.102;2024-01-15T08:11:12;100113.13;;;3.56;100.00
81033;BME280;70514;52.478;6.102;2024-01-15T08:13:40;100109.72;;;3.91;100.00
81033;BME280;70514;52.478;6.102;2024-01-15T08:16:07;100098.25;;;4.10;99.94
81033;BME280;70514;52.478;6.102;2024-01-15T08:18:35;100093.63;;;4.31;98.34
81033;BME280;70514;52.478;6.102;2024-01-15T08:21:03;100098.34;;;3.10;99.72
81033;BME280;70514;52.478;6.102;2024-01-15T08:23:31;100105.00;;;1.88;100.00
81033;BME280;70514;52.478;6.102;2024-01-15T08:25:59;100103.94;;;1.30;100.00
81033;BME280;70514;52.478;6.102;2024-01-15T08:28:27;100109.91;;;1.32;100.00
81033;BME280;70514;52.478;6.102;2024-01-15T08:30:54;100106.06;;;1.17;100.00
81033;BME280;70514;52.478;6.102;2024-01-15T08:33:22;100115.47;;;1.99;100.00
81033;BME280;70514;52.478;6.102;2024-01-15T08:35:51;100111.31;;;2.01;100.00
81033;BME280;70514;52.478;6.102;2024-01-15T08:38:18;100105.19;;;2.51;100.00
81033;BME280;70514;52.478;6.102;2024-01-15T08:40:46;100105.56;;;2.63;100.00
81033;BME280;70514;52.478;6.102;2024-01-15T08:43:14;100114.25;;;1.86;100.00
81033;BME280;70514;52.478;6.102;2024-01-15T08:45:42;100111.88;;;2.19;100.00
81033;BME280;70514;52.478;6.102;2024-01-15T08:48:10;100106.78;;;2.77;100.00
81033;BME280;70514;52.478;6.102;2024-01-15T08:50:38;100109.53;;;2.55;100.00
81033;BME280;70514;52.478;6.102;2024-01-15T08:53:06;100119.72;;;2.55;100.00
81033;BME280;70514;52.478;6.102;2024-01-15T08:55:33;100109.72;;;2.31;100.00
81033;BME280;70514;52.478;6.102;2024-01-15T08:58:01;100109.38;;;2.21;100.00
81033;BME280;70514;52.478;6.102;2024-01-15T09:00:29;100107.00;;;1.71;100.00
81033;BME280;70514;52.478;6.102;2024-01-15T09:02:57;100115.72;;;2.06;100.00
81033;BME280;70514;52.478;6.102;2024-01-15T09:05:25;100108.25;;;2.11;100.00
81033;BME280;70514;52.478;6.102;2024-01-15T09:07:53;100109.66;;;2.58;100.00
81033;BME280;70514;52.478;6.102;2024-01-15T09:10:21;100112.22;;;2.03;100.00
81033;BME280;70514;52.478;6.102;2024-01-15T09:12:49;100108.56;;;2.22;100.00
81033;BME280;70514;52.478;6.102;2024-01-15T09:15:17;100112.38;;;2.64;100.00
81033;BME280;70514;52.478;6.102;2024-01-15T09:17:45;100113.03;;;2.88;100.00
81033;BME280;70514;52.478;6.102;2024-01-15T09:20:14;100117.38;;;2.92;100.00
81033;BME280;70514;52.478;6.102;2024-01-15T09:22:42;100120.53;;;2.84;100.00
81033;BME280;70514;52.478;6.102;2024-01-15T09:25:10;100116.84;;;2.44;100.00
81033;BME280;70514;52.478;6.102;2024-01-15T09:27:38;100118.41;;;2.39;100.00
81033;BME280;70514;52.478;6.102;2024-01-15T09:30:06;100121.09;;;2.16;100.00
81033;BME280;70514;52.478;6.102;2024-01-15T09:32:34;100131.03;;;2.66;100.00
81033;BME280;70514;52.478;6.102;2024-01-15T09:35:02;100122.53;;;2.95;100.00
81033;BME280;70514;52.478;6.102;2024-01-15T09:37:30;100126.81;;;2.37;100.00
81033;BME280;70514;52.478;6.102;2024-01-15T09:40:14;100122.41;;;2.31;100.00
81033;BME280;70514;52.478;6.102;2024-01-15T09:42:43;100126.91;;;3.31;100.00
81033;BME280;70514;52.478;6.102;2024-01-15T09:45:12;100109.97;;;3.33;100.00
81033;BME280;70514;52.478;6.102;2024-01-15T09:47:40;100115.28;;;2.78;100.00
81033;BME280;70514;52.478;6.102;2024-01-15T09:50:13;100117.91;;;2.51;100.00
81033;BME280;70514;52.478;6.102;2024-01-15T09:52:44;100120.44;;;2.81;100.00
81033;BME280;70514;52.478;6.102;2024-01-15T09:55:13;100127.69;;;2.67;100.00
81033;BME280;70514;52.478;6.102;2024-01-15T09:57:41;100126.16;;;2.44;100.00
81033;BME280;70514;52.478;6.102;2024-01-15T10:00:10;100122.78;;;2.73;100.00
81033;BME280;70514;52.478;6.102;2024-01-15T10:02:39;100127.50;;;2.61;100.00
81033;BME280;70514;52.478;6.102;2024-01-15T10:05:07;100123.06;;;2.54;100.00
81033;BME280;70514;52.478;6.102;2024-01-15T10:07:37;100136.50;;;2.22;100.00
81033;BME280;70514;52.478;6.102;2024-01-15T10:10:06;100126.97;;;2.14;100.00
81033;BME280;70514;52.478;6.102;2024-01-15T10:12:35;100128.59;;;1.59;100.00
81033;BME280;70514;52.478;6.102;2024-01-15T10:15:03;100127.31;;;1.46;100.00
81033;BME280;70514;52.478;6.102;2024-01-15T10:17:31;100126.50;;;1.99;100.00
81033;BME280;70514;52.478;6.102;2024-01-15T10:19:59;100116.97;;;2.49;100.00
81033;BME280;70514;52.478;6.102;2024-01-15T10:22:29;100112.06;;;2.53;100.00
81033;BME280;70514;52.478;6.102;2024-01-15T10:24:56;100115.63;;;2.60;100.00
81033;BME280;70514;52.478;6.102;2024-01-15T10:27:24;100106.81;;;3.41;100.00
81033;BME280;70514;52.478;6.102;2024-01-15T10:29:52;100111.50;;;4.33;100.00
81033;BME280;70514;52.478;6.102;2024-01-15T10:32:21;100101.25;;;4.70;98.15
81033;BME280;70514;52.478;6.102;2024-01-15T10:34:52;100113.06;;;4.66;96.83
81033;BME280;70514;52.478;6.102;2024-01-15T10:37:24;100119.72;;;4.58;95.61
81033;BME280;70514;52.478;6.102;2024-01-15T10:39:56;100117.16;;;3.83;96.85
81033;BME280;70514;52.478;6.102;2024-01-15T10:42:24;100129.03;;;3.49;96.71
81033;BME280;70514;52.478;6.102;2024-01-15T10:44:51;100129.63;;;3.06;99.16
81033;BME280;70514;52.478;6.102;2024-01-15T10:47:19;100131.31;;;2.19;100.00
81033;BME280;70514;52.478;6.102;2024-01-15T10:49:48;100123.16;;;2.29;100.00
81033;BME280;70514;52.478;6.102;2024-01-15T10:52:16;100119.38;;;2.43;100.00
81033;BME280;70514;52.478;6.102;2024-01-15T10:54:45;100119.34;;;2.14;100.00
81033;BME280;70514;52.478;6.102;2024-01-15T10:57:14;100124.41;;;2.71;100.00
81033;BME280;70514;52.478;6.102;2024-01-15T10:59:43;100132.47;;;2.56;100.00
81033;BME280;70514;52.478;6.102;2024-01-15T11:02:12;100141.53;;;3.08;100.00
81033;BME280;70514;52.478;6.102;2024-01-15T11:04:41;100141.44;;;3.68;100.00
81033;BME280;70514;52.478;6.102;2024-01-15T11:07:10;100149.44;;;3.84;100.00
81033;BME280;70514;52.478;6.102;2024-01-15T11:09:39;100143.16;;;4.83;95.94
81033;BME280;70514;52.478;6.102;2024-01-15T11:12:10;100139.41;;;4.65;95.64
81033;BME280;70514;52.478;6.102;2024-01-15T11:14:45;100139.25;;;5.00;92.51
81033;BME280;70514;52.478;6.102;2024-01-15T11:17:15;100139.53;;;5.62;89.73
81033;BME280;70514;52.478;6.102;2024-01-15T11:19:44;100142.22;;;6.20;87.31
81033;BME280;70514;52.478;6.102;2024-01-15T11:25:22;100150.41;;;6.57;84.00
81033;BME280;70514;52.478;6.102;2024-01-15T11:27:52;100147.78;;;6.54;83.18
81033;BME280;70514;52.478;6.102;2024-01-15T11:30:25;100163.50;;;6.19;84.69
81033;BME280;70514;52.478;6.102;2024-01-15T11:32:53;100151.31;;;6.03;85.08
81033;BME280;70514;52.478;6.102;2024-01-15T11:35:22;100153.31;;;5.71;85.28
81033;BME280;70514;52.478;6.102;2024-01-15T11:40:41;100148.25;;;5.73;86.47
81033;BME280;70514;52.478;6.102;2024-01-15T11:43:11;100159.53;;;5.37;87.27
81033;BME280;70514;52.478;6.102;2024-01-15T11:45:40;100146.28;;;5.58;87.94
81033;BME280;70514;52.478;6.102;2024-01-15T11:48:15;100157.97;;;5.45;87.98
81033;BME280;70514;52.478;6.102;2024-01-15T11:50:49;100158.72;;;4.95;89.14
81033;BME280;70514;52.478;6.102;2024-01-15T11:56:16;100163.91;;;3.85;93.83
81033;BME280;70514;52.478;6.102;2024-01-15T11:58:46;100165.09;;;3.65;94.46
81033;BME280;70514;52.478;6.102;2024-01-15T12:01:15;100158.66;;;3.45;97.19
81033;BME280;70514;52.478;6.102;2024-01-15T12:03:43;100162.88;;;3.77;100.00
81033;BME280;70514;52.478;6.102;2024-01-15T12:06:11;100168.19;;;3.87;96.70
81033;BME280;70514;52.478;6.102;2024-01-15T12:08:40;100160.34;;;3.77;98.79
81033;BME280;70514;52.478;6.102;2024-01-15T12:11:11;100159.59;;;3.49;97.27
81033;BME280;70514;52.478;6.102;2024-01-15T12:13:41;100173.50;;;3.30;98.36
81033;BME280;70514;52.478;6.102;2024-01-15T12:16:09;100159.00;;;3.26;99.89
81033;BME280;70514;52.478;6.102;2024-01-15T12:18:37;100155.25;;;3.13;99.61
81033;BME280;70514;52.478;6.102;2024-01-15T12:21:05;100164.31;;;2.74;99.74
81033;BME280;70514;52.478;6.102;2024-01-15T12:23:33;100158.81;;;2.60;100.00
81033;BME280;70514;52.478;6.102;2024-01-15T12:26:01;100158.84;;;2.90;100.00
81033;BME280;70514;52.478;6.102;2024-01-15T12:28:29;100164.28;;;2.72;100.00
81033;BME280;70514;52.478;6.102;2024-01-15T12:30:57;100152.38;;;3.01;100.00
81033;BME280;70514;52.478;6.102;2024-01-15T12:33:27;100157.50;;;3.03;100.00
81033;BME280;70514;52.478;6.102;2024-01-15T12:35:56;100167.84;;;4.07;100.00
81033;BME280;70514;52.478;6.102;2024-01-15T12:38:23;100167.81;;;3.71;99.45
81033;BME280;70514;52.478;6.102;2024-01-15T12:40:51;100174.91;;;3.50;98.81
81033;BME280;70514;52.478;6.102;2024-01-15T12:43:19;100177.94;;;3.37;98.07
81033;BME280;70514;52.478;6.102;2024-01-15T12:45:47;100180.72;;;3.79;100.00
81033;BME280;70514;52.478;6.102;2024-01-15T12:48:15;100185.22;;;3.89;98.17
81033;BME280;70514;52.478;6.102;2024-01-15T12:50:46;100185.53;;;3.68;97.17
81033;BME280;70514;52.478;6.102;2024-01-15T12:53:15;100182.97;;;3.67;98.54
81033;BME280;70514;52.478;6.102;2024-01-15T12:55:43;100182.09;;;4.74;96.12
81033;BME280;70514;52.478;6.102;2024-01-15T12:58:11;100187.91;;;3.61;93.34
81033;BME280;70514;52.478;6.102;2024-01-15T13:00:39;100178.22;;;3.48;95.03
81033;BME280;70514;52.478;6.102;2024-01-15T13:03:07;100184.88;;;2.81;98.95
81033;BME280;70514;52.478;6.102;2024-01-15T13:05:35;100182.75;;;3.26;100.00
81033;BME280;70514;52.478;6.102;2024-01-15T13:08:04;100177.97;;;3.38;100.00